createdAt,value
2022-09-12T00:01:57.164Z,14.68
2022-09-12T00:04:29.760Z,14.66
2022-09-12T00:06:58.038Z,14.65
2022-09-12T00:09:31.619Z,14.60
2022-09-12T00:11:59.665Z,14.56
2022-09-12T00:14:27.665Z,14.56
2022-09-12T00:16:57.110Z,14.56
2022-09-12T00:19:24.990Z,14.55
2022-09-12T00:21:57.724Z,14.50
2022-09-12T00:24:32.915Z,14.49
2022-09-12T00:27:00.933Z,14.46
2022-09-12T00:29:29.373Z,14.44
2022-09-12T00:32:02.114Z,14.40
2022-09-12T00:34:30.160Z,14.39
2022-09-12T00:37:01.367Z,14.38
2022-09-12T00:39:35.139Z,14.37
2022-09-12T00:42:03.086Z,14.36
2022-09-12T00:44:30.923Z,14.34
2022-09-12T00:47:12.043Z,14.32
2022-09-12T00:50:06.624Z,14.31
2022-09-12T00:52:54.867Z,14.28
2022-09-12T00:55:28.361Z,14.25
2022-09-12T00:58:04.025Z,14.22
2022-09-12T01:00:35.056Z,14.20
2022-09-12T01:03:10.699Z,14.18
2022-09-12T01:05:40.443Z,14.15
2022-09-12T01:08:14.043Z,14.12
2022-09-12T01:10:42.108Z,14.11
2022-09-12T01:13:35.179Z,14.09
2022-09-12T01:16:04.933Z,14.01
2022-09-12T01:18:59.115Z,13.98
2022-09-12T01:21:37.809Z,13.97
2022-09-12T01:24:21.312Z,13.96
2022-09-12T01:27:48.933Z,13.97
2022-09-12T01:30:34.103Z,13.94
2022-09-12T01:33:13.683Z,13.89
2022-09-12T01:36:02.404Z,13.78
2022-09-12T01:38:48.419Z,13.71
2022-09-12T01:41:36.315Z,13.70
2022-09-12T01:44:23.928Z,13.69
2022-09-12T01:47:09.622Z,13.70
2022-09-12T01:49:41.925Z,13.70
2022-09-12T01:52:25.699Z,13.74
2022-09-12T01:55:06.473Z,13.73
2022-09-12T01:57:43.427Z,13.75
2022-09-12T02:00:14.246Z,13.73
2022-09-12T02:03:06.005Z,13.71
2022-09-12T02:05:39.086Z,13.66
2022-09-12T02:08:15.962Z,13.67
2022-09-12T02:10:50.976Z,13.63
2022-09-12T02:13:23.052Z,13.60
2022-09-12T02:15:57.660Z,13.60
2022-09-12T02:18:26.725Z,13.65
2022-09-12T02:20:59.073Z,13.64
2022-09-12T02:23:33.236Z,13.65
2022-09-12T02:26:25.325Z,13.64
2022-09-12T02:29:01.060Z,13.62
2022-09-12T02:31:53.418Z,13.62
2022-09-12T02:34:30.337Z,13.62
2022-09-12T02:37:33.778Z,13.51
2022-09-12T02:40:02.191Z,13.51
2022-09-12T02:42:35.091Z,13.41
2022-09-12T02:45:07.529Z,13.38
2022-09-12T02:47:40.259Z,13.40
2022-09-12T02:50:13.518Z,13.43
2022-09-12T02:52:46.324Z,13.45
2022-09-12T02:55:14.396Z,13.46
2022-09-12T02:57:44.997Z,13.45
2022-09-12T03:00:16.586Z,13.44
2022-09-12T03:02:49.127Z,13.43
2022-09-12T03:05:40.804Z,13.37
2022-09-12T03:08:37.137Z,13.36
2022-09-12T03:11:22.548Z,13.39
2022-09-12T03:14:06.147Z,13.38
2022-09-12T03:16:48.652Z,13.38
2022-09-12T03:19:53.339Z,13.37
2022-09-12T03:22:27.560Z,13.35
2022-09-12T03:25:02.273Z,13.36
2022-09-12T03:27:36.545Z,13.36
2022-09-12T03:30:12.233Z,13.35
2022-09-12T03:32:51.383Z,13.33
2022-09-12T03:35:23.052Z,13.31
2022-09-12T03:38:03.370Z,13.31
2022-09-12T03:40:31.201Z,13.28
2022-09-12T03:43:03.622Z,13.29
2022-09-12T03:45:34.818Z,13.29
2022-09-12T03:48:03.067Z,13.29
2022-09-12T03:50:35.752Z,13.28
2022-09-12T03:53:04.377Z,13.29
2022-09-12T03:55:32.364Z,13.25
2022-09-12T03:58:06.009Z,13.20
2022-09-12T04:00:38.620Z,13.11
2022-09-12T04:03:06.429Z,13.06
2022-09-12T04:05:38.915Z,13.05
2022-09-12T04:08:06.875Z,13.04
2022-09-12T04:10:34.719Z,13.06
2022-09-12T04:13:02.521Z,13.06
2022-09-12T04:15:34.939Z,13.05
2022-09-12T04:18:06.001Z,13.02
2022-09-12T04:20:34.140Z,13.03
2022-09-12T04:23:13.883Z,13.03
2022-09-12T04:25:41.664Z,12.99
2022-09-12T04:28:13.475Z,13.01
2022-09-12T04:30:41.399Z,13.00
2022-09-12T04:33:17.085Z,12.98
2022-09-12T04:35:46.924Z,12.93
2022-09-12T04:38:19.345Z,12.89
2022-09-12T04:40:51.888Z,12.88
2022-09-12T04:43:24.396Z,12.81
2022-09-12T04:45:53.165Z,12.80
2022-09-12T04:48:26.833Z,12.78
2022-09-12T04:50:54.706Z,12.80
2022-09-12T04:53:22.650Z,12.85
2022-09-12T04:55:50.585Z,12.95
2022-09-12T04:58:30.745Z,12.99
2022-09-12T05:01:11.825Z,13.08
2022-09-12T05:03:44.638Z,13.14
2022-09-12T05:06:25.181Z,13.18
2022-09-12T05:08:59.739Z,13.25
2022-09-12T05:11:59.702Z,13.27
2022-09-12T05:14:24.591Z,13.32
2022-09-12T05:16:52.650Z,13.38
2022-09-12T05:19:20.681Z,13.40
2022-09-12T05:21:48.533Z,13.44
2022-09-12T05:24:16.597Z,13.47
2022-09-12T05:26:44.476Z,13.52
2022-09-12T05:29:12.767Z,13.55
2022-09-12T05:31:40.752Z,13.58
2022-09-12T05:34:11.424Z,13.61
2022-09-12T05:36:42.069Z,13.57
2022-09-12T05:39:17.736Z,13.62
2022-09-12T05:41:45.859Z,13.62
2022-09-12T05:44:19.035Z,13.65
2022-09-12T05:46:51.482Z,13.64
2022-09-12T05:49:24.467Z,13.58
2022-09-12T05:51:52.824Z,13.50
2022-09-12T05:54:34.636Z,13.43
2022-09-12T05:57:07.273Z,13.36
2022-09-12T05:59:45.289Z,13.36
2022-09-12T06:02:18.572Z,13.37
2022-09-12T06:04:57.159Z,13.73
2022-09-12T06:07:50.206Z,13.96
2022-09-12T06:10:20.572Z,14.02
2022-09-12T06:12:48.953Z,13.90
2022-09-12T06:15:19.583Z,13.89
2022-09-12T06:17:51.469Z,13.93
2022-09-12T06:20:33.571Z,13.97
2022-09-12T06:23:06.345Z,13.99
2022-09-12T06:25:38.900Z,14.06
2022-09-12T06:28:11.414Z,14.11
2022-09-12T06:30:44.029Z,14.14
2022-09-12T06:33:26.515Z,14.19
2022-09-12T06:35:54.720Z,14.24
2022-09-12T06:39:00.908Z,14.27
2022-09-12T06:41:35.408Z,14.35
2022-09-12T06:44:09.108Z,14.35
2022-09-12T06:46:50.983Z,14.41
2022-09-12T06:49:25.201Z,14.47
2022-09-12T06:51:58.891Z,14.57
2022-09-12T06:54:28.444Z,14.60
2022-09-12T06:56:56.348Z,14.68
2022-09-12T06:59:33.423Z,14.73
2022-09-12T07:02:04.677Z,14.81
2022-09-12T07:04:34.783Z,14.91
2022-09-12T07:07:02.647Z,14.92
2022-09-12T07:09:35.098Z,14.97
2022-09-12T07:12:07.987Z,14.99
2022-09-12T07:14:35.877Z,15.03
2022-09-12T07:17:03.772Z,15.07
2022-09-12T07:19:31.696Z,15.14
2022-09-12T07:22:11.879Z,15.24
2022-09-12T07:24:41.313Z,15.29
2022-09-12T07:27:16.162Z,15.30
2022-09-12T07:29:48.712Z,15.30
2022-09-12T07:32:22.193Z,15.36
2022-09-12T07:34:51.131Z,15.39
2022-09-12T07:37:22.139Z,15.41
2022-09-12T07:39:54.909Z,15.45
2022-09-12T07:42:23.045Z,15.52
2022-09-12T07:44:52.050Z,15.68
2022-09-12T07:47:25.667Z,15.80
2022-09-12T07:49:54.312Z,15.94
2022-09-12T07:52:22.236Z,16.07
2022-09-12T07:54:50.305Z,16.21
2022-09-12T07:57:22.916Z,16.37
2022-09-12T07:59:53.480Z,16.59
2022-09-12T08:02:28.345Z,16.80
2022-09-12T08:05:01.355Z,16.95
2022-09-12T08:07:29.474Z,17.12
2022-09-12T08:10:02.561Z,17.37
2022-09-12T08:12:37.880Z,17.53
2022-09-12T08:15:12.590Z,17.78
2022-09-12T08:17:40.812Z,17.96
2022-09-12T08:20:13.307Z,18.23
2022-09-12T08:22:41.865Z,18.43
2022-09-12T08:25:10.218Z,18.54
2022-09-12T08:27:38.863Z,18.63
2022-09-12T08:30:15.035Z,18.84
2022-09-12T08:32:48.403Z,19.03
2022-09-12T08:35:27.133Z,19.16
2022-09-12T08:37:55.274Z,19.34
2022-09-12T08:40:23.081Z,19.56
2022-09-12T08:43:06.866Z,19.67
2022-09-12T08:46:01.327Z,19.69
2022-09-12T08:48:29.207Z,19.72
2022-09-12T08:51:02.117Z,19.82
2022-09-12T08:53:29.974Z,19.94
2022-09-12T08:56:00.415Z,19.92
2022-09-12T08:58:29.428Z,20.13
2022-09-12T09:01:00.688Z,20.18
2022-09-12T09:03:40.258Z,20.14
2022-09-12T09:06:32.888Z,20.26
2022-09-12T09:09:18.499Z,20.34
2022-09-12T09:11:58.343Z,20.38
2022-09-12T09:14:50.045Z,20.49
2022-09-12T09:17:43.859Z,20.52
2022-09-12T09:20:43.193Z,20.71
2022-09-12T09:23:25.389Z,21.09
2022-09-12T09:26:15.858Z,21.17
2022-09-12T09:28:49.565Z,21.18
2022-09-12T09:31:23.579Z,21.31
2022-09-12T09:33:52.908Z,21.38
2022-09-12T09:36:39.625Z,21.55
2022-09-12T09:39:32.554Z,21.72
2022-09-12T09:42:50.025Z,21.89
2022-09-12T09:45:30.957Z,21.95
2022-09-12T09:48:05.490Z,22.17
2022-09-12T09:50:34.849Z,22.16
2022-09-12T09:53:03.649Z,22.16
2022-09-12T09:55:40.369Z,22.25
2022-09-12T09:58:33.530Z,22.37
2022-09-12T10:01:07.995Z,22.23
2022-09-12T10:03:42.886Z,22.18
2022-09-12T10:06:38.259Z,22.08
2022-09-12T10:09:24.959Z,22.13
2022-09-12T10:12:18.279Z,22.17
2022-09-12T10:15:17.213Z,22.09
2022-09-12T10:17:47.514Z,22.15
2022-09-12T10:20:40.860Z,22.16
2022-09-12T10:23:24.795Z,22.19
2022-09-12T10:25:57.811Z,22.26
2022-09-12T10:29:16.610Z,22.08
2022-09-12T10:31:47.458Z,22.07
2022-09-12T10:34:38.095Z,22.18
2022-09-12T10:37:11.266Z,22.20
2022-09-12T10:39:39.748Z,22.19
2022-09-12T10:42:07.756Z,22.19
2022-09-12T10:44:36.370Z,22.06
2022-09-12T10:47:24.046Z,21.98
2022-09-12T10:49:55.397Z,22.11
2022-09-12T10:52:24.968Z,22.12
2022-09-12T10:54:53.388Z,22.24
2022-09-12T10:57:36.715Z,22.34
2022-09-12T11:00:17.045Z,22.40
2022-09-12T11:03:06.360Z,22.33
2022-09-12T11:06:02.637Z,22.33
2022-09-12T11:09:00.637Z,22.35
2022-09-12T11:11:42.308Z,22.48
2022-09-12T11:14:34.884Z,22.57
2022-09-12T11:17:53.135Z,22.73
2022-09-12T11:20:33.189Z,22.94
2022-09-12T11:23:13.168Z,23.10
2022-09-12T11:26:01.898Z,23.19
2022-09-12T11:28:51.051Z,23.31
2022-09-12T11:31:36.880Z,23.49
2022-09-12T11:34:10.752Z,23.52
2022-09-12T11:36:45.390Z,23.72
2022-09-12T11:39:37.975Z,23.78
2022-09-12T11:42:13.344Z,23.84
2022-09-12T11:44:44.094Z,23.79
2022-09-12T11:47:13.912Z,23.77
2022-09-12T11:49:49.990Z,23.74
2022-09-12T11:52:23.584Z,23.89
2022-09-12T11:55:06.288Z,23.95
2022-09-12T11:57:56.985Z,24.00
2022-09-12T12:00:46.345Z,24.20
2022-09-12T12:03:39.196Z,24.21
2022-09-12T12:06:43.889Z,24.45
2022-09-12T12:09:12.442Z,24.64
2022-09-12T12:11:47.315Z,24.74
2022-09-12T12:14:40.300Z,24.85
2022-09-12T12:17:34.692Z,24.91
2022-09-12T12:20:08.872Z,25.05
2022-09-12T12:22:39.166Z,25.04
2022-09-12T12:25:20.844Z,25.00
2022-09-12T12:28:02.745Z,24.89
2022-09-12T12:30:58.535Z,24.85
2022-09-12T12:33:32.109Z,24.94
2022-09-12T12:36:00.754Z,24.98
2022-09-12T12:38:56.421Z,25.05
2022-09-12T12:41:30.159Z,25.16
2022-09-12T12:44:00.525Z,25.25
2022-09-12T12:46:31.577Z,25.21
2022-09-12T12:49:30.196Z,25.42
2022-09-12T12:52:02.785Z,25.63
2022-09-12T12:54:35.411Z,25.75
2022-09-12T12:57:35.877Z,25.92
2022-09-12T13:00:32.683Z,26.00
2022-09-12T13:03:08.739Z,26.19
2022-09-12T13:06:13.574Z,26.32
2022-09-12T13:09:08.142Z,26.24
2022-09-12T13:11:42.803Z,26.28
2022-09-12T13:14:45.066Z,26.41
2022-09-12T13:17:34.870Z,26.44
2022-09-12T13:20:28.451Z,26.55
2022-09-12T13:22:58.244Z,26.55
2022-09-12T13:25:28.016Z,26.62
2022-09-12T13:28:36.105Z,26.59
2022-09-12T13:31:26.364Z,26.65
2022-09-12T13:34:00.891Z,26.65
2022-09-12T13:37:06.142Z,26.71
2022-09-12T13:39:51.013Z,26.58
2022-09-12T13:42:31.958Z,26.54
2022-09-12T13:45:05.117Z,26.57
2022-09-12T13:47:38.595Z,26.55
2022-09-12T13:50:26.809Z,26.49
2022-09-12T13:53:08.621Z,26.33
2022-09-12T13:55:38.970Z,26.24
2022-09-12T13:58:39.703Z,26.21
2022-09-12T14:01:14.377Z,26.12
2022-09-12T14:04:22.845Z,26.08
2022-09-12T14:06:53.145Z,26.00
2022-09-12T14:09:56.473Z,26.16
2022-09-12T14:13:01.752Z,26.29
2022-09-12T14:15:34.971Z,26.18
2022-09-12T14:18:04.554Z,26.18
2022-09-12T14:20:40.115Z,26.25
2022-09-12T14:23:32.648Z,26.30
2022-09-12T14:26:08.071Z,26.33
2022-09-12T14:28:42.061Z,26.04
2022-09-12T14:31:46.265Z,25.95
2022-09-12T14:34:16.239Z,25.94
2022-09-12T14:36:49.322Z,25.87
2022-09-12T14:39:42.615Z,25.78
2022-09-12T14:42:28.587Z,25.66
2022-09-12T14:45:18.538Z,25.65
2022-09-12T14:47:54.136Z,25.57
2022-09-12T14:50:27.537Z,25.43
2022-09-12T14:53:27.328Z,25.36
2022-09-12T14:56:00.350Z,25.27
2022-09-12T14:58:32.962Z,25.11
2022-09-12T15:01:03.012Z,24.94
2022-09-12T15:03:48.733Z,24.81
2022-09-12T15:06:30.577Z,24.62
2022-09-12T15:09:00.909Z,24.44
2022-09-12T15:11:28.760Z,24.38
2022-09-12T15:13:56.763Z,24.19
2022-09-12T15:16:30.357Z,24.14
2022-09-12T15:19:03.238Z,23.95
2022-09-12T15:21:46.821Z,23.91
2022-09-12T15:24:14.891Z,23.81
2022-09-12T15:26:47.622Z,23.78
2022-09-12T15:29:20.729Z,23.66
2022-09-12T15:31:53.556Z,23.54
2022-09-12T15:34:21.542Z,23.42
2022-09-12T15:36:54.393Z,23.34
2022-09-12T15:39:22.267Z,23.27
2022-09-12T15:41:50.686Z,23.20
2022-09-12T15:44:18.453Z,23.18
2022-09-12T15:46:49.451Z,23.09
2022-09-12T15:49:21.886Z,23.01
2022-09-12T15:51:54.407Z,22.96
2022-09-12T15:54:27.195Z,22.87
2022-09-12T15:56:55.251Z,22.85
2022-09-12T15:59:50.733Z,22.79
2022-09-12T16:02:23.277Z,22.72
2022-09-12T16:04:55.766Z,22.62
2022-09-12T16:07:23.872Z,22.59
2022-09-12T16:09:56.700Z,22.59
2022-09-12T16:12:29.671Z,22.53
2022-09-12T16:15:02.092Z,22.46
2022-09-12T16:17:34.668Z,22.44
2022-09-12T16:20:07.286Z,22.37
2022-09-12T16:22:35.186Z,22.34
2022-09-12T16:25:09.250Z,22.30
2022-09-12T16:28:02.151Z,22.21
2022-09-12T16:30:30.032Z,22.20
2022-09-12T16:32:57.867Z,22.17
2022-09-12T16:35:25.686Z,22.19
2022-09-12T16:38:02.943Z,22.17
2022-09-12T16:40:31.568Z,22.15
2022-09-12T16:43:04.269Z,22.09
2022-09-12T16:45:37.198Z,22.09
2022-09-12T16:48:05.059Z,22.06
2022-09-12T16:50:36.154Z,22.01
2022-09-12T16:53:04.208Z,22.02
2022-09-12T16:55:34.787Z,21.99
2022-09-12T16:58:02.703Z,21.99
2022-09-12T17:00:35.172Z,21.95
2022-09-12T17:03:03.169Z,21.90
2022-09-12T17:05:36.001Z,21.91
2022-09-12T17:08:04.165Z,21.86
2022-09-12T17:10:39.660Z,21.83
2022-09-12T17:13:10.573Z,21.79
2022-09-12T17:15:43.071Z,21.81
2022-09-12T17:18:17.163Z,21.76
2022-09-12T17:21:09.958Z,21.71
2022-09-12T17:23:38.270Z,21.68
2022-09-12T17:26:20.168Z,21.59
2022-09-12T17:28:48.268Z,21.45
2022-09-12T17:31:20.949Z,21.35
2022-09-12T17:33:48.937Z,21.27
2022-09-12T17:36:22.989Z,21.17
2022-09-12T17:38:56.650Z,21.10
2022-09-12T17:41:32.239Z,20.98
2022-09-12T17:44:05.156Z,20.87
2022-09-12T17:46:39.258Z,20.81
2022-09-12T17:49:13.242Z,20.70
2022-09-12T17:51:41.565Z,20.63
2022-09-12T17:54:17.496Z,20.55
2022-09-12T17:56:46.617Z,20.48
2022-09-12T17:59:21.470Z,20.42
2022-09-12T18:02:07.699Z,20.33
2022-09-12T18:04:41.816Z,20.29
2022-09-12T18:07:09.732Z,20.18
2022-09-12T18:09:39.626Z,20.12
2022-09-12T18:12:07.976Z,20.05
2022-09-12T18:14:47.779Z,19.99
2022-09-12T18:17:20.409Z,19.94
2022-09-12T18:19:53.839Z,19.86
2022-09-12T18:22:22.008Z,19.79
2022-09-12T18:24:55.047Z,19.76
2022-09-12T18:27:27.478Z,19.71
2022-09-12T18:30:20.655Z,19.66
2022-09-12T18:32:54.852Z,19.59
2022-09-12T18:35:35.033Z,19.49
2022-09-12T18:38:08.060Z,19.46
2022-09-12T18:41:02.431Z,19.42
2022-09-12T18:43:30.705Z,19.29
2022-09-12T18:45:58.799Z,19.22
2022-09-12T18:48:30.841Z,19.19
2022-09-12T18:51:12.607Z,19.12
2022-09-12T18:53:46.302Z,19.08
2022-09-12T18:56:19.947Z,19.03
2022-09-12T18:59:01.029Z,19.00
2022-09-12T19:01:33.835Z,18.95
2022-09-12T19:04:11.088Z,18.90
2022-09-12T19:06:43.442Z,18.83
2022-09-12T19:09:25.677Z,18.79
2022-09-12T19:11:56.888Z,18.72
2022-09-12T19:14:25.092Z,18.65
2022-09-12T19:16:53.399Z,18.67
2022-09-12T19:19:24.892Z,18.63
2022-09-12T19:22:00.698Z,18.60
2022-09-12T19:24:41.316Z,18.53
2022-09-12T19:27:15.210Z,18.47
2022-09-12T19:29:56.958Z,18.44
2022-09-12T19:32:30.485Z,18.37
2022-09-12T19:34:59.442Z,18.34
2022-09-12T19:37:27.308Z,18.32
2022-09-12T19:39:55.899Z,18.26
2022-09-12T19:42:43.914Z,18.23
2022-09-12T19:45:24.174Z,18.17
2022-09-12T19:47:52.163Z,18.15
2022-09-12T19:50:24.961Z,18.13
2022-09-12T19:52:57.610Z,18.07
2022-09-12T19:55:26.846Z,18.05
2022-09-12T19:58:17.532Z,18.05
2022-09-12T20:00:49.157Z,18.01
2022-09-12T20:03:22.641Z,17.94
2022-09-12T20:05:55.524Z,17.91
2022-09-12T20:08:28.215Z,17.86
2022-09-12T20:11:10.514Z,17.82
2022-09-12T20:13:38.290Z,17.78
2022-09-12T20:16:23.081Z,17.75
2022-09-12T20:19:13.426Z,17.72
2022-09-12T20:21:44.236Z,17.73
2022-09-12T20:24:17.223Z,17.65
2022-09-12T20:26:45.072Z,17.65
2022-09-12T20:29:15.621Z,17.64
2022-09-12T20:31:43.510Z,17.64
2022-09-12T20:34:22.235Z,17.59
2022-09-12T20:36:50.063Z,17.55
2022-09-12T20:39:22.391Z,17.52
2022-09-12T20:41:50.360Z,17.51
2022-09-12T20:44:18.352Z,17.49
2022-09-12T20:46:46.264Z,17.48
2022-09-12T20:49:14.258Z,17.44
2022-09-12T20:51:42.062Z,17.42
2022-09-12T20:54:10.761Z,17.40
2022-09-12T20:56:38.744Z,17.36
2022-09-12T20:59:06.792Z,17.33
2022-09-12T21:01:34.753Z,17.29
2022-09-12T21:04:03.017Z,17.25
2022-09-12T21:06:30.845Z,17.23
2022-09-12T21:09:01.667Z,17.20
2022-09-12T21:11:29.679Z,17.15
2022-09-12T21:13:57.790Z,17.09
2022-09-12T21:16:25.774Z,17.06
2022-09-12T21:18:55.203Z,16.99
2022-09-12T21:21:23.008Z,16.93
2022-09-12T21:23:52.118Z,16.91
2022-09-12T21:26:19.935Z,16.87
2022-09-12T21:28:47.685Z,16.81
2022-09-12T21:31:15.633Z,16.80
2022-09-12T21:33:43.451Z,16.73
2022-09-12T21:36:11.553Z,16.70
2022-09-12T21:38:39.390Z,16.67
2022-09-12T21:41:11.773Z,16.64
2022-09-12T21:43:40.043Z,16.60
2022-09-12T21:46:08.027Z,16.59
2022-09-12T21:48:35.910Z,16.55
2022-09-12T21:51:03.751Z,16.53
2022-09-12T21:53:32.173Z,16.52
2022-09-12T21:56:04.593Z,16.44
2022-09-12T21:58:32.531Z,16.41
2022-09-12T22:01:01.614Z,16.40
2022-09-12T22:03:29.913Z,16.39
2022-09-12T22:06:02.778Z,16.38
2022-09-12T22:08:31.135Z,16.35
2022-09-12T22:11:03.233Z,16.33
2022-09-12T22:13:34.819Z,16.30
2022-09-12T22:16:04.062Z,16.29
2022-09-12T22:18:34.941Z,16.23
2022-09-12T22:21:06.049Z,16.20
2022-09-12T22:23:52.531Z,16.17
2022-09-12T22:26:20.290Z,16.14
2022-09-12T22:28:48.673Z,16.13
2022-09-12T22:31:16.792Z,16.05
2022-09-12T22:33:44.748Z,16.03
2022-09-12T22:36:17.237Z,16.01
2022-09-12T22:38:45.148Z,16.00
2022-09-12T22:41:12.999Z,15.95
2022-09-12T22:43:40.880Z,15.91
2022-09-12T22:46:13.178Z,15.87
2022-09-12T22:48:41.625Z,15.84
2022-09-12T22:51:09.565Z,15.84
2022-09-12T22:53:38.802Z,15.82
2022-09-12T22:56:06.710Z,15.83
2022-09-12T22:58:35.355Z,15.84
2022-09-12T23:01:03.154Z,15.81
2022-09-12T23:03:31.045Z,15.81
2022-09-12T23:05:58.922Z,15.80
2022-09-12T23:08:30.606Z,15.76
2022-09-12T23:11:05.875Z,15.76
2022-09-12T23:13:34.094Z,15.74
2022-09-12T23:16:02.329Z,15.73
2022-09-12T23:18:30.155Z,15.73
2022-09-12T23:21:01.591Z,15.73
2022-09-12T23:23:29.696Z,15.71
2022-09-12T23:26:14.090Z,15.69
2022-09-12T23:28:42.706Z,15.66
2022-09-12T23:31:10.927Z,15.63
2022-09-12T23:33:38.919Z,15.61
2022-09-12T23:36:08.630Z,15.59
2022-09-12T23:38:36.616Z,15.61
2022-09-12T23:41:04.729Z,15.60
2022-09-12T23:43:32.711Z,15.59
2022-09-12T23:46:00.615Z,15.53
2022-09-12T23:48:28.485Z,15.54
2022-09-12T23:50:56.366Z,15.53
2022-09-12T23:53:24.313Z,15.55
2022-09-12T23:55:52.303Z,15.52
2022-09-12T23:58:20.140Z,15.51
